Airfield :
LOGIN :

Register | Disclaimer

   EN    FR    IT 

 










Legend :    VFR   Marginal VFR   IFR   Intensive IFR   Very Intensive IFR
Visi :
Ceiling :
>= 8 km
>= 3000ft
5 to 8 km
1000 to 3000 ft
1500m to 5 km
500 to 1000 ft
800 to 1500m
200 to 500 ft
< 800m
< 200 ft
Symbols :   Thunderstorms  Fog  Heavy snow  Heavy precipitations  Wind > 20 kt
SIGMETs :     Misc.  Thunderstorms  Icing  Turbulence  Mountain Waves  Volcanic Ashes






- Airport Elevation : 1260 ft
- IATA code : LDE


LFBT - Tarbes / Ossun

CURRENT METAR :
  • 061430Z AUTO 06003KT 020V120 CAVOK 15/05 Q1021 NOSIG

EXPIRED METARs :
  • 061400Z AUTO 03003KT 350V090 CAVOK 15/05 Q1021 NOSIG
  • 061330Z AUTO VRB03KT CAVOK 15/04 Q1021 NOSIG
  • 061300Z AUTO VRB01KT CAVOK 16/06 Q1021 NOSIG
  • 061230Z AUTO VRB02KT CAVOK 14/06 Q1022 NOSIG

TAF TAF LFBT
Valid from the 06 at 12:00 until the 07 at 12:00 UTC


061100Z 0612/0712 VRB02KT CAVOK
BECMG 0700/0703 BKN050
PROB30 0703/0706 2000 BR BKN010
BECMG 0710/0712 -RA BKN030



MET'MAP, your aeronautical weather chart ! - Copyright ORBIFLY December 2007 - Disclaimer

ORBIFLY MET'MAP TEAM :

Programming & Development : Alexandra Zaïnal
Concept & original design : Baudouin d'Aumeries
Assistance for programming : Marc-Olivier Méhu
Technical & hardware support : Manuel Goepfert

Contact : metmap@orbifly.com




SOURCES & CREDITS :

   NOAA